Texas City — WDD4983 — position and weather

sailwx.info

Track history (hours):
 
Tides and Currents Weather Stations Pressure Air Temp Water Temp Dewpoint Dewpoint Depression Visibility Wind Speed Wind Dir Waves Ship Positions

Texas City

Owner: Marathon Petroleum Company LP, Findlay, OH. More information available from US FCC via Universal Licensing System and Coast Guard Vessel Documentation Center.

Last reported at 2016-Apr-30 04:27 UTC. Time now 2016-Apr-30 11:20 UTC.
Position N 29°56' W 092°58'.

Length 28 m; draft 3 m.

Type: Tug. MMSI: 367135470.

Date/timePositionNaut miles runAvg speedWind from/ knotsBaromVisibWave heightAir tempDewpointWater temp
2016-Apr-30 04:27N 29°56' W 092°58'4 4.1
2016-Apr-30 03:33N 29°56' W 093°02'4 3.7
2016-Apr-30 02:33N 29°56' W 093°06'4 4.0
2016-Apr-30 01:30N 29°58' W 093°11'4 4.3
2016-Apr-30 00:34N 30°01' W 093°14'4 4.1
2016-Apr-29 23:30N 30°04' W 093°16'2 2.3
2016-Apr-29 22:28N 30°06' W 093°18'1 1.2
2016-Apr-29 21:33N 30°06' W 093°19'3 2.9
2016-Apr-29 20:30N 30°04' W 093°22'5 4.3
2016-Apr-29 19:25N 30°04' W 093°28'6 4.7
2016-Apr-29 18:08N 30°04' W 093°35'43 4.4
2016-Apr-29 08:16N 29°39' W 094°15'3 4.5
2016-Apr-29 07:32N 29°38' W 094°19'20 3.6
2016-Apr-29 02:06N 29°28' W 094°38'12 3.3
2016-Apr-28 22:34N 29°29' W 094°52'7 7.4
2016-Apr-28 21:34N 29°35' W 094°56'7 7.3
2016-Apr-28 20:33N 29°42' W 094°60'6 5.8
2016-Apr-28 19:33N 29°46' W 095°05'1 0.8
2016-Apr-28 18:26N 29°47' W 095°05'0 0.0
2016-Apr-28 13:34N 29°47' W 095°05'0 0.0
2016-Apr-28 12:21N 29°47' W 095°05'0 0.0
2016-Apr-28 11:34N 29°47' W 095°05'0 0.0
2016-Apr-28 10:32N 29°47' W 095°05'0 0.0
2016-Apr-28 09:33N 29°47' W 095°05'0 0.0
2016-Apr-28 08:25N 29°47' W 095°05'0 0.1
2016-Apr-28 04:14N 29°46' W 095°05'3 4.8
2016-Apr-28 03:32N 29°44' W 095°07'4 0.3
2016-Apr-27 15:05N 29°44' W 095°12'2 4.6
2016-Apr-27 14:33N 29°45' W 095°10'6 5.9
2016-Apr-27 13:33N 29°47' W 095°04'0 0.1
2016-Apr-27 12:32N 29°47' W 095°04'0 0.0
2016-Apr-27 11:33N 29°47' W 095°04'0 0.0
2016-Apr-27 10:33N 29°47' W 095°04'2 1.5
2016-Apr-27 09:33N 29°46' W 095°05'0 0.0
2016-Apr-27 08:34N 29°46' W 095°05'0 0.0
2016-Apr-27 07:34N 29°46' W 095°05'0 0.0
2016-Apr-27 06:34N 29°46' W 095°05'0 0.0
2016-Apr-27 05:33N 29°46' W 095°05'0 0.0
2016-Apr-27 04:33N 29°46' W 095°05'0 0.0
2016-Apr-27 03:33N 29°46' W 095°05'0 0.0
2016-Apr-25 14:33N 29°46' W 095°05'0 0.0
2016-Apr-25 08:33N 29°46' W 095°05'0 0.0
2016-Apr-25 07:33N 29°46' W 095°05'0 0.0
2016-Apr-25 06:33N 29°46' W 095°05'0 0.0
2016-Apr-25 05:33N 29°46' W 095°05'0 0.0
2016-Apr-25 04:34N 29°46' W 095°05'0 0.0
2016-Apr-25 03:33N 29°46' W 095°05'0 0.0
2016-Apr-25 02:33N 29°46' W 095°05'0 0.0
2016-Apr-25 01:33N 29°46' W 095°05'0 0.0
2016-Apr-25 00:33N 29°46' W 095°05'0 0.0
2016-Apr-24 23:33N 29°46' W 095°05'0 0.0
2016-Apr-24 22:33N 29°46' W 095°05'0 0.0
2016-Apr-24 21:33N 29°46' W 095°05'0 0.0
2016-Apr-24 20:34N 29°46' W 095°05'0 0.0
2016-Apr-24 19:34N 29°46' W 095°05'0 0.0
2016-Apr-24 18:34N 29°46' W 095°05'0 0.0
2016-Apr-24 17:34N 29°46' W 095°05'0 0.0
2016-Apr-24 16:33N 29°46' W 095°05'0 0.0
2016-Apr-24 15:33N 29°46' W 095°05'0 0.0
2016-Apr-24 14:34N 29°46' W 095°05'0 0.0
2016-Apr-24 13:34N 29°46' W 095°05'0 0.0
2016-Apr-24 12:33N 29°46' W 095°05'0 0.0
2016-Apr-24 11:34N 29°46' W 095°05'0 0.0
2016-Apr-24 10:33N 29°46' W 095°05'0 0.0
2016-Apr-24 09:34N 29°46' W 095°05'0 0.0
2016-Apr-24 08:33N 29°46' W 095°05'0 0.0
2016-Apr-24 07:34N 29°46' W 095°05'0 0.0
2016-Apr-24 06:33N 29°46' W 095°05'0 0.0
2016-Apr-24 05:34N 29°46' W 095°05'0 0.0
2016-Apr-24 04:34N 29°46' W 095°05'0 0.0
2016-Apr-24 03:34N 29°46' W 095°05'0 0.2
2016-Apr-24 02:30N 29°46' W 095°05'0 0.0
2016-Apr-24 01:34N 29°46' W 095°05'0 0.1
2016-Apr-24 00:34N 29°46' W 095°05'0 0.3
2016-Apr-23 23:25N 29°47' W 095°05'0 0.1
2016-Apr-23 22:33N 29°47' W 095°05'0 0.0
2016-Apr-23 21:34N 29°47' W 095°05'0 0.0
2016-Apr-23 20:33N 29°47' W 095°05'0 0.0
2016-Apr-23 19:33N 29°47' W 095°05'0 0.0
2016-Apr-23 18:33N 29°47' W 095°05'0 0.0
2016-Apr-23 17:33N 29°47' W 095°05'0 0.0
2016-Apr-23 16:25N 29°47' W 095°05'0 0.0
2016-Apr-23 15:21N 29°47' W 095°05'0 0.0
2016-Apr-23 14:33N 29°47' W 095°05'0 0.0
2016-Apr-23 13:33N 29°47' W 095°05'0 0.0
2016-Apr-23 12:33N 29°47' W 095°05'0 0.0
2016-Apr-23 11:33N 29°47' W 095°05'0 0.0
2016-Apr-23 10:33N 29°47' W 095°05'0 0.0
2016-Apr-23 09:33N 29°47' W 095°05'0 0.0
2016-Apr-23 08:33N 29°47' W 095°05'0 0.0
2016-Apr-23 07:33N 29°47' W 095°05'0 0.0
2016-Apr-23 06:32N 29°47' W 095°05'0 0.0
2016-Apr-23 05:32N 29°47' W 095°05'0 0.0
2016-Apr-23 03:30N 29°47' W 095°05'0 0.0
2016-Apr-23 02:25N 29°47' W 095°05'0 0.0
2016-Apr-23 01:33N 29°47' W 095°05'0 0.0
2016-Apr-23 00:34N 29°47' W 095°05'0 0.0
2016-Apr-22 22:12N 29°47' W 095°05'0 0.0
2016-Apr-22 21:33N 29°47' W 095°05'0 0.0
2016-Apr-22 20:23N 29°47' W 095°05'1 1.6
2016-Apr-22 19:33N 29°45' W 095°04'7 7.4
2016-Apr-22 18:33N 29°40' W 094°58'8 8.0
2016-Apr-22 17:33N 29°33' W 094°54'60 1.6
2016-Apr-21 04:33N 29°57' W 093°52'8 7.7
2016-Apr-21 03:33N 30°02' W 093°44'7 6.9
2016-Apr-21 02:34N 30°04' W 093°37'7 6.8
2016-Apr-21 01:34N 30°04' W 093°29'6 6.4
2016-Apr-21 00:34N 30°04' W 093°21'4 3.6
2016-Apr-20 23:34N 30°06' W 093°19'2 2.4
2016-Apr-20 22:33N 30°05' W 093°17'6 5.8
2016-Apr-20 21:34N 29°60' W 093°13'6 5.9
2016-Apr-20 20:34N 29°56' W 093°08'7 6.5
2016-Apr-20 19:33N 29°56' W 093°00'  
Track history (hours):
 
Tides and Currents Weather Stations Pressure Air Temp Water Temp Dewpoint Dewpoint Depression Visibility Wind Speed Wind Dir Waves Ship Positions

Texas City

Owner: Marathon Petroleum Company LP, Findlay, OH. More information available from US FCC via Universal Licensing System and Coast Guard Vessel Documentation Center.

Last reported at 2016-Apr-30 04:27 UTC. Time now 2016-Apr-30 11:20 UTC.
Position N 29°56' W 092°58'.

Length 28 m; draft 3 m.

Type: Tug. MMSI: 367135470.

Date/timePositionNaut miles runAvg speedWind from/ knotsBaromVisibWave heightAir tempDewpointWater temp
2016-Apr-30 04:27N 29°56' W 092°58'4 4.1
2016-Apr-30 03:33N 29°56' W 093°02'4 3.7
2016-Apr-30 02:33N 29°56' W 093°06'4 4.0
2016-Apr-30 01:30N 29°58' W 093°11'4 4.3
2016-Apr-30 00:34N 30°01' W 093°14'4 4.1
2016-Apr-29 23:30N 30°04' W 093°16'2 2.3
2016-Apr-29 22:28N 30°06' W 093°18'1 1.2
2016-Apr-29 21:33N 30°06' W 093°19'3 2.9
2016-Apr-29 20:30N 30°04' W 093°22'5 4.3
2016-Apr-29 19:25N 30°04' W 093°28'6 4.7
2016-Apr-29 18:08N 30°04' W 093°35'43 4.4
2016-Apr-29 08:16N 29°39' W 094°15'3 4.5
2016-Apr-29 07:32N 29°38' W 094°19'20 3.6
2016-Apr-29 02:06N 29°28' W 094°38'12 3.3
2016-Apr-28 22:34N 29°29' W 094°52'7 7.4
2016-Apr-28 21:34N 29°35' W 094°56'7 7.3
2016-Apr-28 20:33N 29°42' W 094°60'6 5.8
2016-Apr-28 19:33N 29°46' W 095°05'1 0.8
2016-Apr-28 18:26N 29°47' W 095°05'0 0.0
2016-Apr-28 13:34N 29°47' W 095°05'0 0.0
2016-Apr-28 12:21N 29°47' W 095°05'0 0.0
2016-Apr-28 11:34N 29°47' W 095°05'0 0.0
2016-Apr-28 10:32N 29°47' W 095°05'0 0.0
2016-Apr-28 09:33N 29°47' W 095°05'0 0.0
2016-Apr-28 08:25N 29°47' W 095°05'0 0.1
2016-Apr-28 04:14N 29°46' W 095°05'3 4.8
2016-Apr-28 03:32N 29°44' W 095°07'4 0.3
2016-Apr-27 15:05N 29°44' W 095°12'2 4.6
2016-Apr-27 14:33N 29°45' W 095°10'6 5.9
2016-Apr-27 13:33N 29°47' W 095°04'0 0.1
2016-Apr-27 12:32N 29°47' W 095°04'0 0.0
2016-Apr-27 11:33N 29°47' W 095°04'0 0.0
2016-Apr-27 10:33N 29°47' W 095°04'2 1.5
2016-Apr-27 09:33N 29°46' W 095°05'0 0.0
2016-Apr-27 08:34N 29°46' W 095°05'0 0.0
2016-Apr-27 07:34N 29°46' W 095°05'0 0.0
2016-Apr-27 06:34N 29°46' W 095°05'0 0.0
2016-Apr-27 05:33N 29°46' W 095°05'0 0.0
2016-Apr-27 04:33N 29°46' W 095°05'0 0.0
2016-Apr-27 03:33N 29°46' W 095°05'0 0.0
2016-Apr-25 14:33N 29°46' W 095°05'0 0.0
2016-Apr-25 08:33N 29°46' W 095°05'0 0.0
2016-Apr-25 07:33N 29°46' W 095°05'0 0.0
2016-Apr-25 06:33N 29°46' W 095°05'0 0.0
2016-Apr-25 05:33N 29°46' W 095°05'0 0.0
2016-Apr-25 04:34N 29°46' W 095°05'0 0.0
2016-Apr-25 03:33N 29°46' W 095°05'0 0.0
2016-Apr-25 02:33N 29°46' W 095°05'0 0.0
2016-Apr-25 01:33N 29°46' W 095°05'0 0.0
2016-Apr-25 00:33N 29°46' W 095°05'0 0.0
2016-Apr-24 23:33N 29°46' W 095°05'0 0.0
2016-Apr-24 22:33N 29°46' W 095°05'0 0.0
2016-Apr-24 21:33N 29°46' W 095°05'0 0.0
2016-Apr-24 20:34N 29°46' W 095°05'0 0.0
2016-Apr-24 19:34N 29°46' W 095°05'0 0.0
2016-Apr-24 18:34N 29°46' W 095°05'0 0.0
2016-Apr-24 17:34N 29°46' W 095°05'0 0.0
2016-Apr-24 16:33N 29°46' W 095°05'0 0.0
2016-Apr-24 15:33N 29°46' W 095°05'0 0.0
2016-Apr-24 14:34N 29°46' W 095°05'0 0.0
2016-Apr-24 13:34N 29°46' W 095°05'0 0.0
2016-Apr-24 12:33N 29°46' W 095°05'0 0.0
2016-Apr-24 11:34N 29°46' W 095°05'0 0.0
2016-Apr-24 10:33N 29°46' W 095°05'0 0.0
2016-Apr-24 09:34N 29°46' W 095°05'0 0.0
2016-Apr-24 08:33N 29°46' W 095°05'0 0.0
2016-Apr-24 07:34N 29°46' W 095°05'0 0.0
2016-Apr-24 06:33N 29°46' W 095°05'0 0.0
2016-Apr-24 05:34N 29°46' W 095°05'0 0.0
2016-Apr-24 04:34N 29°46' W 095°05'0 0.0
2016-Apr-24 03:34N 29°46' W 095°05'0 0.2
2016-Apr-24 02:30N 29°46' W 095°05'0 0.0
2016-Apr-24 01:34N 29°46' W 095°05'0 0.1
2016-Apr-24 00:34N 29°46' W 095°05'0 0.3
2016-Apr-23 23:25N 29°47' W 095°05'0 0.1
2016-Apr-23 22:33N 29°47' W 095°05'0 0.0
2016-Apr-23 21:34N 29°47' W 095°05'0 0.0
2016-Apr-23 20:33N 29°47' W 095°05'0 0.0
2016-Apr-23 19:33N 29°47' W 095°05'0 0.0
2016-Apr-23 18:33N 29°47' W 095°05'0 0.0
2016-Apr-23 17:33N 29°47' W 095°05'0 0.0
2016-Apr-23 16:25N 29°47' W 095°05'0 0.0
2016-Apr-23 15:21N 29°47' W 095°05'0 0.0
2016-Apr-23 14:33N 29°47' W 095°05'0 0.0
2016-Apr-23 13:33N 29°47' W 095°05'0 0.0
2016-Apr-23 12:33N 29°47' W 095°05'0 0.0
2016-Apr-23 11:33N 29°47' W 095°05'0 0.0
2016-Apr-23 10:33N 29°47' W 095°05'0 0.0
2016-Apr-23 09:33N 29°47' W 095°05'0 0.0
2016-Apr-23 08:33N 29°47' W 095°05'0 0.0
2016-Apr-23 07:33N 29°47' W 095°05'0 0.0
2016-Apr-23 06:32N 29°47' W 095°05'0 0.0
2016-Apr-23 05:32N 29°47' W 095°05'0 0.0
2016-Apr-23 03:30N 29°47' W 095°05'0 0.0
2016-Apr-23 02:25N 29°47' W 095°05'0 0.0
2016-Apr-23 01:33N 29°47' W 095°05'0 0.0
2016-Apr-23 00:34N 29°47' W 095°05'0 0.0
2016-Apr-22 22:12N 29°47' W 095°05'0 0.0
2016-Apr-22 21:33N 29°47' W 095°05'0 0.0
2016-Apr-22 20:23N 29°47' W 095°05'1 1.6
2016-Apr-22 19:33N 29°45' W 095°04'7 7.4
2016-Apr-22 18:33N 29°40' W 094°58'8 8.0
2016-Apr-22 17:33N 29°33' W 094°54'60 1.6
2016-Apr-21 04:33N 29°57' W 093°52'8 7.7
2016-Apr-21 03:33N 30°02' W 093°44'7 6.9
2016-Apr-21 02:34N 30°04' W 093°37'7 6.8
2016-Apr-21 01:34N 30°04' W 093°29'6 6.4
2016-Apr-21 00:34N 30°04' W 093°21'4 3.6
2016-Apr-20 23:34N 30°06' W 093°19'2 2.4
2016-Apr-20 22:33N 30°05' W 093°17'6 5.8
2016-Apr-20 21:34N 29°60' W 093°13'6 5.9
2016-Apr-20 20:34N 29°56' W 093°08'7 6.5
2016-Apr-20 19:33N 29°56' W 093°00'  

Dump ship's entire track history